Weather at Juan Carlos Bagur Airport

Public forecast

Using degrees Celsius for public forecast. Weather courtesy of forecast.io.

Closest aviation weather report (METAR) to Juan Carlos Bagur Airport

Closest report is Rosario Islas Malvinas International Airport, 57.0 nm (105.5 km) WSW.

2024/06/22 13:00 (retrieved 43 minutes ago)

SAAR 221300Z 15009KT 3000 BR OVC002 18/18 Q1007

Closest aviation forecast (TAF) to Juan Carlos Bagur Airport

Closest forecast is Rosario Islas Malvinas International Airport, 57.0 nm (105.5 km) WSW.

2024/06/22 12:00 (retrieved 2 hours ago)

TAF SAAR 221100Z 2212/2312 18005KT 1200 BR BKN002 OVC004 TX19/2218Z TN11/2306Z BECMG 2213/2215 14010KT 5000 BR BKN005 OVC015 TEMPO 2215/2218 1200 DZ BR OVC005 BECMG 2217/2220 8000 BKN015 OVC025 BECMG 2302/2304 18015G25KT 5000 RA BKN015 OVC040 BECMG 2309/2311 18010KT 9999 BKN020